createdAt,value
2019-06-07T00:00:45.591Z,104.00
2019-06-07T00:01:45.570Z,112.00
2019-06-07T00:02:45.560Z,116.00
2019-06-07T00:03:45.540Z,128.00
2019-06-07T00:04:45.536Z,132.00
2019-06-07T00:05:45.525Z,144.00
2019-06-07T00:06:45.511Z,148.00
2019-06-07T00:07:45.516Z,160.00
2019-06-07T00:08:45.494Z,168.00
2019-06-07T00:09:45.487Z,180.00
2019-06-07T00:10:45.508Z,188.00
2019-06-07T00:11:45.456Z,196.00
2019-06-07T00:12:45.466Z,204.00
2019-06-07T00:13:45.459Z,216.00
2019-06-07T00:14:45.437Z,228.00
2019-06-07T00:15:45.422Z,232.00
2019-06-07T00:16:57.307Z,244.00
2019-06-07T00:17:45.407Z,252.00
2019-06-07T00:18:45.375Z,264.00
2019-06-07T00:19:45.411Z,272.00
2019-06-07T00:20:45.363Z,280.00
2019-06-07T00:22:46.373Z,304.00
2019-06-07T00:23:45.323Z,308.00
2019-06-07T00:24:45.318Z,320.00
2019-06-07T00:25:45.322Z,328.00
2019-06-07T00:26:57.639Z,340.00
2019-06-07T00:27:46.286Z,344.00
2019-06-07T00:28:45.341Z,356.00
2019-06-07T00:29:45.299Z,364.00
2019-06-07T00:30:51.642Z,372.00
2019-06-07T00:31:46.256Z,380.00
2019-06-07T00:32:45.232Z,388.00
2019-06-07T00:33:45.217Z,400.00
2019-06-07T00:34:45.218Z,412.00
2019-06-07T00:35:45.206Z,428.00
2019-06-07T00:36:45.202Z,444.00
2019-06-07T00:37:45.171Z,460.00
2019-06-07T00:38:45.198Z,480.00
2019-06-07T00:39:45.268Z,500.00
2019-06-07T00:40:45.139Z,520.00
2019-06-07T00:41:45.134Z,548.00
2019-06-07T00:42:45.115Z,572.00
2019-06-07T00:43:45.115Z,596.00
2019-06-07T00:44:45.115Z,628.00
2019-06-07T00:45:45.097Z,660.00
2019-06-07T00:46:45.090Z,696.00
2019-06-07T00:47:56.519Z,732.00
2019-06-07T00:48:45.052Z,776.00
2019-06-07T00:49:45.081Z,812.00
2019-06-07T00:50:45.037Z,852.00
2019-06-07T00:51:50.329Z,896.00
2019-06-07T00:53:46.002Z,964.00
2019-06-07T00:54:44.987Z,1008.00
2019-06-07T00:55:45.023Z,1056.00
2019-06-07T00:56:44.982Z,1100.00
2019-06-07T00:57:45.036Z,1148.00
2019-06-07T00:58:44.946Z,1196.00
2019-06-07T00:59:44.939Z,1252.00
2019-06-07T01:00:44.926Z,1304.00
2019-06-07T01:01:44.989Z,1360.00
2019-06-07T01:02:44.917Z,1416.00
2019-06-07T01:03:44.886Z,1476.00
2019-06-07T01:04:44.899Z,1536.00
2019-06-07T01:05:44.884Z,1596.00
2019-06-07T01:06:44.874Z,1656.00
2019-06-07T01:07:44.850Z,1720.00
2019-06-07T01:08:44.850Z,1780.00
2019-06-07T01:09:44.828Z,1840.00
2019-06-07T01:10:53.523Z,1900.00
2019-06-07T01:11:45.834Z,1960.00
2019-06-07T01:12:44.809Z,2012.00
2019-06-07T01:13:44.786Z,2072.00
2019-06-07T01:14:44.788Z,2124.00
2019-06-07T01:15:44.757Z,2180.00
2019-06-07T01:16:57.496Z,2236.00
2019-06-07T01:18:25.919Z,2292.00
2019-06-07T01:18:56.058Z,2344.00
2019-06-07T01:19:44.717Z,2404.00
2019-06-07T01:20:44.755Z,2460.00
2019-06-07T01:21:44.694Z,2524.00
2019-06-07T01:22:44.686Z,2592.00
2019-06-07T01:24:08.102Z,2656.00
2019-06-07T01:24:45.657Z,2724.00
2019-06-07T01:25:44.700Z,2792.00
2019-06-07T01:26:45.569Z,2860.00
2019-06-07T01:27:44.657Z,2936.00
2019-06-07T01:28:44.620Z,3004.00
2019-06-07T01:29:44.609Z,3080.00
2019-06-07T01:30:44.597Z,3156.00
2019-06-07T01:31:44.583Z,3240.00
2019-06-07T01:32:44.575Z,3316.00
2019-06-07T01:33:50.867Z,3400.00
2019-06-07T01:34:45.590Z,3492.00
2019-06-07T01:35:44.567Z,3580.00
2019-06-07T01:36:44.533Z,3680.00
2019-06-07T01:37:44.526Z,3772.00
2019-06-07T01:38:44.508Z,3868.00
2019-06-07T01:39:44.497Z,3960.00
2019-06-07T01:40:44.489Z,4056.00
2019-06-07T01:41:44.474Z,4144.00
2019-06-07T01:42:44.466Z,4236.00
2019-06-07T01:43:44.527Z,4332.00
2019-06-07T01:44:44.447Z,4428.00
2019-06-07T01:45:44.438Z,4528.00
2019-06-07T01:46:44.423Z,4628.00
2019-06-07T01:47:44.419Z,4732.00
2019-06-07T01:48:49.421Z,4836.00
2019-06-07T01:50:58.974Z,5076.00
2019-06-07T01:51:58.954Z,5184.00
2019-06-07T01:52:58.949Z,5296.00
2019-06-07T01:54:48.684Z,5404.00
2019-06-07T01:54:59.922Z,5516.00
2019-06-07T01:55:58.978Z,5628.00
2019-06-07T01:56:58.902Z,5740.00
2019-06-07T01:57:58.892Z,5852.00
2019-06-07T01:58:58.886Z,5972.00
2019-06-07T01:59:58.875Z,6088.00
2019-06-07T02:00:58.872Z,6192.00
2019-06-07T02:01:58.889Z,6300.00
2019-06-07T02:02:58.836Z,6404.00
2019-06-07T02:03:58.834Z,7100.00
2019-06-07T02:04:58.814Z,9592.00
2019-06-07T02:05:58.820Z,13216.00
2019-06-07T02:06:58.796Z,16928.00
2019-06-07T02:07:58.841Z,19840.00
2019-06-07T02:08:58.769Z,22016.00
2019-06-07T02:09:58.758Z,22976.00
2019-06-07T02:10:58.749Z,23296.00
2019-06-07T02:11:58.739Z,23776.00
2019-06-07T02:12:58.732Z,24832.00
2019-06-07T02:13:58.754Z,25024.00
2019-06-07T02:14:58.715Z,26112.00
2019-06-07T02:15:58.691Z,27584.00
2019-06-07T02:16:58.696Z,27776.00
2019-06-07T02:17:58.681Z,28512.00
2019-06-07T02:19:02.069Z,29248.00
2019-06-07T02:19:58.689Z,29888.00
2019-06-07T02:21:09.696Z,31200.00
2019-06-07T02:21:58.624Z,31232.00
2019-06-07T02:22:58.624Z,31456.00
2019-06-07T02:23:58.606Z,32480.00
2019-06-07T02:25:34.551Z,33344.00
2019-06-07T02:25:59.588Z,33056.00
2019-06-07T02:26:58.577Z,33184.00
2019-06-07T02:28:25.819Z,33440.00
2019-06-07T02:28:59.565Z,33728.00
2019-06-07T02:29:58.544Z,33728.00
2019-06-07T02:31:00.443Z,34688.00
2019-06-07T02:31:58.527Z,35456.00
2019-06-07T02:32:58.510Z,35008.00
2019-06-07T02:33:58.539Z,35072.00
2019-06-07T02:34:58.499Z,35232.00
2019-06-07T02:35:58.487Z,35488.00
2019-06-07T02:36:58.472Z,36096.00
2019-06-07T02:37:58.479Z,36608.00
2019-06-07T02:38:58.443Z,37472.00
2019-06-07T02:39:58.448Z,38592.00
2019-06-07T02:40:58.422Z,37920.00
2019-06-07T02:41:58.416Z,37408.00
2019-06-07T02:42:58.404Z,37504.00
2019-06-07T02:43:58.402Z,37696.00
2019-06-07T02:44:58.403Z,37952.00
2019-06-07T02:46:21.179Z,37632.00
2019-06-07T02:46:59.379Z,38176.00
2019-06-07T02:47:58.354Z,38784.00
2019-06-07T02:48:58.465Z,37920.00
2019-06-07T02:49:58.376Z,38880.00
2019-06-07T02:50:58.352Z,39168.00
2019-06-07T02:52:10.218Z,40000.00
2019-06-07T02:52:58.311Z,39840.00
2019-06-07T02:53:58.292Z,40288.00
2019-06-07T02:54:58.325Z,40160.00
2019-06-07T02:56:34.950Z,39872.00
2019-06-07T02:56:59.460Z,40608.00
2019-06-07T02:57:58.247Z,41280.00
2019-06-07T02:58:58.269Z,40384.00
2019-06-07T03:00:16.512Z,39872.00
2019-06-07T03:01:07.539Z,40320.00
2019-06-07T03:01:59.271Z,40800.00
2019-06-07T03:02:58.198Z,40736.00
2019-06-07T03:03:58.205Z,40608.00
2019-06-07T03:04:58.168Z,41440.00
2019-06-07T03:05:58.248Z,41760.00
2019-06-07T03:06:58.202Z,41536.00
2019-06-07T03:07:58.143Z,42240.00
2019-06-07T03:08:58.130Z,42432.00
2019-06-07T03:09:58.123Z,41824.00
2019-06-07T03:10:58.117Z,41504.00
2019-06-07T03:11:58.101Z,41888.00
2019-06-07T03:12:58.114Z,42336.00
2019-06-07T03:13:58.087Z,43616.00
2019-06-07T03:14:58.085Z,43456.00
2019-06-07T03:15:58.061Z,43264.00
2019-06-07T03:16:58.053Z,42592.00
2019-06-07T03:17:58.046Z,40416.00
2019-06-07T03:18:58.038Z,38112.00
2019-06-07T03:19:58.034Z,38432.00
2019-06-07T03:21:05.412Z,40544.00
2019-06-07T03:21:59.001Z,43296.00
2019-06-07T03:23:10.019Z,44128.00
2019-06-07T03:23:57.972Z,42912.00
2019-06-07T03:24:57.965Z,42656.00
2019-06-07T03:25:57.960Z,43168.00
2019-06-07T03:27:58.932Z,45216.00
2019-06-07T03:28:57.944Z,44832.00
2019-06-07T03:29:57.911Z,44864.00
2019-06-07T03:31:02.724Z,45024.00
2019-06-07T03:31:58.898Z,44960.00
2019-06-07T03:32:57.890Z,45824.00
2019-06-07T03:33:57.888Z,45504.00
2019-06-07T03:34:57.875Z,45632.00
2019-06-07T03:35:57.855Z,46624.00
2019-06-07T03:36:57.858Z,47520.00
2019-06-07T03:37:57.830Z,48768.00
2019-06-07T03:38:57.859Z,47616.00
2019-06-07T03:39:57.813Z,47808.00
2019-06-07T03:40:57.801Z,48576.00
2019-06-07T03:42:06.221Z,49600.00
2019-06-07T03:42:58.782Z,49632.00
2019-06-07T03:43:57.779Z,48992.00
2019-06-07T03:44:57.896Z,48576.00
2019-06-07T03:45:57.754Z,48736.00
2019-06-07T03:46:57.765Z,49152.00
2019-06-07T03:47:57.750Z,49536.00
2019-06-07T03:48:57.715Z,50048.00
2019-06-07T03:49:57.708Z,49792.00
2019-06-07T03:51:04.449Z,50848.00
2019-06-07T03:51:58.683Z,50528.00
2019-06-07T03:52:57.674Z,48640.00
2019-06-07T03:54:09.470Z,49792.00
2019-06-07T03:54:57.656Z,51936.00
2019-06-07T03:55:57.646Z,53216.00
2019-06-07T03:56:57.646Z,53824.00
2019-06-07T03:58:30.665Z,53344.00
2019-06-07T03:58:58.652Z,53568.00
2019-06-07T03:59:57.649Z,53664.00
2019-06-07T04:01:01.980Z,52512.00
2019-06-07T04:01:57.607Z,52384.00
2019-06-07T04:02:57.579Z,51904.00
2019-06-07T04:03:57.577Z,51200.00
2019-06-07T04:04:57.564Z,51520.00
2019-06-07T04:05:57.552Z,52736.00
2019-06-07T04:06:57.548Z,52992.00
2019-06-07T04:07:57.560Z,52128.00
2019-06-07T04:08:57.519Z,50976.00
2019-06-07T04:09:57.528Z,52032.00
2019-06-07T04:11:00.047Z,52224.00
2019-06-07T04:11:57.492Z,53184.00
2019-06-07T04:12:57.478Z,53696.00
2019-06-07T04:13:57.477Z,54272.00
2019-06-07T04:14:57.465Z,54208.00
2019-06-07T04:15:57.453Z,53632.00
2019-06-07T04:16:57.439Z,53248.00
2019-06-07T04:18:01.738Z,56288.00
2019-06-07T04:18:58.416Z,57568.00
2019-06-07T04:19:57.408Z,55968.00
2019-06-07T04:20:57.404Z,54560.00
2019-06-07T04:21:57.390Z,52608.00
2019-06-07T04:22:57.396Z,53088.00
2019-06-07T04:23:57.432Z,54624.00
2019-06-07T04:25:09.424Z,55904.00
2019-06-07T04:25:57.353Z,56800.00
2019-06-07T04:26:57.354Z,55328.00
2019-06-07T04:27:57.328Z,54848.00
2019-06-07T04:30:07.534Z,55392.00
2019-06-07T04:30:58.302Z,53696.00
2019-06-07T04:31:57.286Z,51264.00
2019-06-07T04:32:57.290Z,50112.00
2019-06-07T04:33:57.279Z,49568.00
2019-06-07T04:34:57.254Z,49696.00
2019-06-07T04:35:57.255Z,49600.00
2019-06-07T04:36:59.598Z,49504.00
2019-06-07T04:37:57.227Z,49920.00
2019-06-07T04:38:57.219Z,50144.00
2019-06-07T04:39:57.210Z,49664.00
2019-06-07T04:40:57.210Z,49920.00
2019-06-07T04:41:57.204Z,50112.00
2019-06-07T04:42:57.178Z,48800.00
2019-06-07T04:43:57.168Z,47456.00
2019-06-07T04:44:57.211Z,49024.00
2019-06-07T04:45:57.153Z,50432.00
2019-06-07T04:46:57.141Z,49696.00
2019-06-07T04:47:57.135Z,49152.00
2019-06-07T04:48:57.126Z,48160.00
2019-06-07T04:49:57.118Z,48608.00
2019-06-07T04:50:57.125Z,49344.00
2019-06-07T04:51:57.093Z,49920.00
2019-06-07T04:52:57.090Z,49440.00
2019-06-07T04:53:57.074Z,48256.00
2019-06-07T04:54:57.082Z,47264.00
2019-06-07T04:56:09.658Z,46400.00
2019-06-07T04:56:57.052Z,47168.00
2019-06-07T04:57:57.037Z,47808.00
2019-06-07T04:58:57.021Z,46784.00
2019-06-07T05:00:22.725Z,46624.00
2019-06-07T05:01:03.207Z,46304.00
2019-06-07T05:01:58.030Z,46208.00
2019-06-07T05:02:56.987Z,44832.00
2019-06-07T05:03:56.979Z,42752.00
2019-06-07T05:04:56.982Z,42304.00
2019-06-07T05:05:56.977Z,43424.00
2019-06-07T05:06:56.947Z,42624.00
2019-06-07T05:07:56.946Z,41472.00
2019-06-07T05:08:56.937Z,43456.00
2019-06-07T05:09:56.969Z,44800.00
2019-06-07T05:10:56.913Z,42784.00
2019-06-07T05:11:56.899Z,41792.00
2019-06-07T05:12:56.926Z,42752.00
2019-06-07T05:13:56.876Z,41312.00
2019-06-07T05:14:56.875Z,40608.00
2019-06-07T05:15:56.858Z,39680.00
2019-06-07T05:16:56.853Z,37760.00
2019-06-07T05:17:56.837Z,36032.00
2019-06-07T05:18:56.839Z,36832.00
2019-06-07T05:19:56.848Z,36736.00
2019-06-07T05:20:56.807Z,36192.00
2019-06-07T05:22:04.127Z,35008.00
2019-06-07T05:22:57.783Z,34240.00
2019-06-07T05:24:06.473Z,29984.00
2019-06-07T05:24:57.771Z,24288.00
2019-06-07T05:25:56.761Z,21792.00
2019-06-07T05:27:09.049Z,21888.00
2019-06-07T05:27:56.748Z,22336.00
2019-06-07T05:28:56.730Z,21920.00
2019-06-07T05:30:13.227Z,20960.00
2019-06-07T05:31:04.585Z,20576.00
2019-06-07T05:31:57.700Z,20352.00
2019-06-07T05:32:56.692Z,20448.00
2019-06-07T05:33:56.731Z,20672.00
2019-06-07T05:34:56.685Z,21408.00
2019-06-07T05:35:56.677Z,22272.00
2019-06-07T05:37:11.153Z,22720.00
2019-06-07T05:37:57.645Z,23488.00
2019-06-07T05:38:56.659Z,28128.00
2019-06-07T05:39:56.622Z,37856.00
2019-06-07T05:40:56.646Z,41760.00
2019-06-07T05:41:56.616Z,35776.00
2019-06-07T05:42:56.609Z,31488.00
2019-06-07T05:44:12.210Z,32128.00
2019-06-07T05:44:57.573Z,33120.00
2019-06-07T05:45:56.598Z,31264.00
2019-06-07T05:46:56.573Z,26912.00
2019-06-07T05:47:56.612Z,25184.00
2019-06-07T05:48:56.533Z,24224.00
2019-06-07T05:49:56.604Z,25568.00
2019-06-07T05:50:57.626Z,26848.00
2019-06-07T05:51:56.519Z,23488.00
2019-06-07T05:52:56.506Z,21696.00
2019-06-07T05:53:56.515Z,22368.00
2019-06-07T05:54:56.476Z,22560.00
2019-06-07T05:55:56.467Z,22432.00
2019-06-07T05:56:56.456Z,22688.00
2019-06-07T05:58:09.213Z,22304.00
2019-06-07T05:58:56.437Z,21632.00
2019-06-07T05:59:56.434Z,21312.00
2019-06-07T06:00:56.420Z,21504.00
2019-06-07T06:02:03.196Z,21152.00
2019-06-07T06:03:05.231Z,20896.00
2019-06-07T06:03:57.403Z,21696.00
2019-06-07T06:04:56.386Z,21280.00
2019-06-07T06:05:56.407Z,20960.00
2019-06-07T06:06:56.360Z,20960.00
2019-06-07T06:19:56.303Z,20384.00
2019-06-07T06:22:56.213Z,20992.00
2019-06-07T06:29:08.519Z,14676.00
2019-06-07T06:29:56.278Z,14648.00
2019-06-07T06:50:55.920Z,14164.00
2019-06-07T06:53:55.910Z,14072.00
2019-06-07T07:00:07.643Z,14056.00
2019-06-07T07:01:05.946Z,14252.00
2019-06-07T07:21:55.628Z,14056.00
2019-06-07T07:22:57.085Z,14072.00
2019-06-07T07:24:19.774Z,14164.00
2019-06-07T07:24:56.575Z,14276.00
2019-06-07T07:25:59.426Z,14332.00
2019-06-07T07:26:58.292Z,14332.00
2019-06-07T07:27:55.572Z,14308.00
2019-06-07T07:28:57.793Z,14300.00
2019-06-07T07:30:34.362Z,14284.00
2019-06-07T07:31:07.277Z,14240.00
2019-06-07T07:31:56.558Z,14208.00
2019-06-07T07:36:59.536Z,14056.00
2019-06-07T07:39:03.482Z,14128.00
2019-06-07T07:41:06.669Z,14020.00
2019-06-07T07:42:56.762Z,14092.00
2019-06-07T07:44:56.831Z,14200.00
2019-06-07T07:46:56.364Z,14152.00
2019-06-07T07:48:56.290Z,14168.00
2019-06-07T07:51:58.416Z,13964.00
2019-06-07T07:54:09.087Z,13912.00
2019-06-07T07:56:00.105Z,13800.00
2019-06-07T07:59:01.465Z,13680.00
2019-06-07T08:01:07.667Z,13668.00
2019-06-07T08:02:58.698Z,13652.00
2019-06-07T08:05:58.946Z,13500.00
2019-06-07T08:08:57.035Z,13480.00
2019-06-07T08:10:58.573Z,13508.00
2019-06-07T08:13:16.158Z,13612.00
2019-06-07T08:15:59.162Z,13628.00
2019-06-07T08:18:58.576Z,13600.00
2019-06-07T08:21:55.665Z,13728.00
2019-06-07T08:23:58.299Z,13836.00
2019-06-07T08:25:58.485Z,13820.00
2019-06-07T08:27:17.877Z,13852.00
2019-06-07T08:27:57.251Z,13756.00
2019-06-07T08:28:58.899Z,13616.00
2019-06-07T08:30:25.180Z,13620.00
2019-06-07T08:31:04.110Z,13376.00
2019-06-07T08:31:58.195Z,13240.00
2019-06-07T08:33:25.277Z,13268.00
2019-06-07T08:33:58.337Z,13380.00
2019-06-07T08:34:59.726Z,13584.00
2019-06-07T08:36:14.032Z,13808.00
2019-06-07T08:36:59.143Z,13924.00
2019-06-07T08:38:21.564Z,13880.00
2019-06-07T08:39:00.454Z,13752.00
2019-06-07T08:39:56.723Z,13688.00
2019-06-07T08:41:02.251Z,13668.00
2019-06-07T08:42:11.925Z,13604.00
2019-06-07T08:43:57.832Z,13444.00
2019-06-07T08:45:59.755Z,13132.00
2019-06-07T08:47:57.967Z,13120.00
2019-06-07T08:49:59.593Z,13028.00
2019-06-07T08:53:00.058Z,12956.00
2019-06-07T08:54:15.891Z,12976.00
2019-06-07T08:54:57.855Z,12976.00
2019-06-07T08:57:06.643Z,12876.00
2019-06-07T08:58:03.379Z,12880.00
2019-06-07T08:59:00.372Z,12884.00
2019-06-07T08:59:58.593Z,12876.00
2019-06-07T09:00:58.521Z,12796.00
2019-06-07T09:01:59.781Z,12664.00
2019-06-07T09:02:58.179Z,12744.00
2019-06-07T09:05:12.333Z,12728.00
2019-06-07T09:07:19.154Z,12732.00
2019-06-07T09:08:28.657Z,12696.00
2019-06-07T09:09:10.087Z,12796.00
2019-06-07T09:10:14.234Z,12824.00
2019-06-07T09:11:11.731Z,12816.00
2019-06-07T09:12:11.303Z,12820.00
2019-06-07T09:13:11.644Z,12836.00
2019-06-07T09:14:09.489Z,12812.00
2019-06-07T09:15:20.900Z,12752.00
2019-06-07T09:16:10.007Z,12728.00
2019-06-07T09:17:12.469Z,12752.00
2019-06-07T09:18:39.438Z,12756.00
2019-06-07T09:19:10.943Z,12948.00
2019-06-07T09:20:32.842Z,12260.00
2019-06-07T09:21:10.140Z,10676.00
2019-06-07T09:22:11.465Z,10440.00
2019-06-07T09:23:16.699Z,11976.00
2019-06-07T09:24:11.696Z,12608.00
2019-06-07T09:25:20.020Z,12600.00
2019-06-07T09:26:17.976Z,12724.00
2019-06-07T09:27:10.441Z,12524.00
2019-06-07T09:28:19.111Z,12508.00
2019-06-07T09:29:11.888Z,12520.00
2019-06-07T09:30:15.510Z,12480.00
2019-06-07T09:31:12.552Z,12580.00
2019-06-07T09:32:14.859Z,12468.00
2019-06-07T09:33:09.830Z,12436.00
2019-06-07T09:34:13.926Z,12456.00
2019-06-07T09:36:22.917Z,12460.00
2019-06-07T09:38:03.866Z,12428.00
2019-06-07T09:38:26.097Z,12372.00
2019-06-07T09:39:22.875Z,12320.00
2019-06-07T09:40:27.647Z,12260.00
2019-06-07T09:41:42.630Z,12220.00
2019-06-07T09:42:23.862Z,12208.00
2019-06-07T09:44:26.285Z,12204.00
2019-06-07T09:45:22.812Z,12188.00
2019-06-07T09:46:22.804Z,12032.00
2019-06-07T09:47:32.214Z,12020.00
2019-06-07T09:49:09.049Z,12044.00
2019-06-07T09:49:32.032Z,12056.00
2019-06-07T09:50:23.762Z,12056.00
2019-06-07T09:51:22.751Z,12120.00
2019-06-07T09:52:22.747Z,12164.00
2019-06-07T09:53:23.574Z,12176.00
2019-06-07T09:55:03.802Z,12128.00
2019-06-07T09:55:25.279Z,12100.00
2019-06-07T09:56:22.702Z,12056.00
2019-06-07T09:57:22.689Z,12000.00
2019-06-07T09:58:53.641Z,12060.00
2019-06-07T09:59:23.686Z,12020.00
2019-06-07T10:00:40.147Z,11952.00
2019-06-07T10:01:23.650Z,11960.00
2019-06-07T10:02:22.630Z,11988.00
2019-06-07T10:03:23.004Z,11988.00
2019-06-07T10:04:31.051Z,11976.00
2019-06-07T10:05:23.597Z,11952.00
2019-06-07T10:06:34.138Z,11900.00
2019-06-07T10:07:31.285Z,11848.00
2019-06-07T10:09:42.312Z,11860.00
2019-06-07T10:10:08.650Z,11840.00
2019-06-07T10:11:23.532Z,11776.00
2019-06-07T10:12:22.528Z,11748.00
2019-06-07T10:13:22.530Z,11732.00
2019-06-07T10:14:22.528Z,11716.00
2019-06-07T10:15:22.496Z,11688.00
2019-06-07T10:16:22.478Z,11644.00
2019-06-07T10:17:22.465Z,11668.00
2019-06-07T10:18:22.457Z,11696.00
2019-06-07T10:19:22.492Z,11716.00
2019-06-07T10:20:22.446Z,11664.00
2019-06-07T10:21:22.434Z,11628.00
2019-06-07T10:22:22.420Z,11608.00
2019-06-07T10:23:22.416Z,11628.00
2019-06-07T10:24:22.397Z,11588.00
2019-06-07T10:25:22.410Z,11524.00
2019-06-07T10:26:22.378Z,11540.00
2019-06-07T10:27:22.381Z,11532.00
2019-06-07T10:28:22.355Z,11528.00
2019-06-07T10:29:22.347Z,11492.00
2019-06-07T10:30:22.346Z,11452.00
2019-06-07T10:31:22.325Z,11400.00
2019-06-07T10:32:22.308Z,11356.00
2019-06-07T10:33:22.291Z,11332.00
2019-06-07T10:34:22.302Z,11364.00
2019-06-07T10:35:22.313Z,11356.00
2019-06-07T10:36:22.274Z,11380.00
2019-06-07T10:37:34.749Z,11376.00
2019-06-07T10:38:22.239Z,11388.00
2019-06-07T10:39:22.232Z,11364.00
2019-06-07T10:40:22.221Z,11292.00
2019-06-07T10:41:22.218Z,11196.00
2019-06-07T10:42:22.195Z,11176.00
2019-06-07T10:43:22.183Z,11208.00
2019-06-07T10:44:22.180Z,11220.00
2019-06-07T10:45:22.164Z,11224.00
2019-06-07T10:46:22.205Z,11192.00
2019-06-07T10:47:22.174Z,11100.00
2019-06-07T10:48:24.805Z,11124.00
2019-06-07T10:49:22.144Z,11140.00
2019-06-07T10:50:22.139Z,11136.00
2019-06-07T10:51:22.133Z,11104.00
2019-06-07T10:52:22.094Z,11072.00
2019-06-07T10:53:22.081Z,11044.00
2019-06-07T10:54:29.536Z,11008.00
2019-06-07T10:55:23.059Z,10948.00
2019-06-07T10:56:22.058Z,10904.00
2019-06-07T10:57:22.047Z,10916.00
2019-06-07T10:58:22.020Z,10940.00
2019-06-07T10:59:22.014Z,10936.00
2019-06-07T11:00:22.007Z,10904.00
2019-06-07T11:01:21.993Z,10876.00
2019-06-07T11:02:22.018Z,10828.00
2019-06-07T11:03:22.002Z,10804.00
2019-06-07T11:04:21.957Z,10788.00
2019-06-07T11:05:21.958Z,10812.00
2019-06-07T11:06:21.941Z,10824.00
2019-06-07T11:07:21.926Z,10800.00
2019-06-07T11:08:34.444Z,10808.00
2019-06-07T11:09:21.902Z,10808.00
2019-06-07T11:10:21.896Z,10780.00
2019-06-07T11:11:21.884Z,10740.00
2019-06-07T11:12:21.878Z,10704.00
2019-06-07T11:13:21.907Z,10712.00
2019-06-07T11:14:21.853Z,10688.00
2019-06-07T11:15:21.836Z,10688.00
2019-06-07T11:16:21.828Z,10692.00
2019-06-07T11:17:21.819Z,10672.00
2019-06-07T11:18:21.826Z,10636.00
2019-06-07T11:19:21.814Z,10620.00
2019-06-07T11:20:21.790Z,10612.00
2019-06-07T11:21:21.797Z,10556.00
2019-06-07T11:22:21.767Z,10556.00
2019-06-07T11:23:21.753Z,10560.00
2019-06-07T11:24:24.585Z,10544.00
2019-06-07T11:25:21.736Z,10536.00
2019-06-07T11:26:21.720Z,10512.00
2019-06-07T11:27:21.729Z,10472.00
2019-06-07T11:28:21.715Z,10416.00
2019-06-07T11:29:21.694Z,10380.00
2019-06-07T11:30:21.717Z,10352.00
2019-06-07T11:31:21.673Z,10320.00
2019-06-07T11:32:21.659Z,10308.00
2019-06-07T11:33:21.642Z,10292.00
2019-06-07T11:34:21.917Z,10284.00
2019-06-07T11:35:21.635Z,10268.00
2019-06-07T11:36:21.612Z,10248.00
2019-06-07T11:37:21.612Z,10240.00
2019-06-07T11:38:21.602Z,8548.00
2019-06-07T11:39:33.958Z,10068.00
2019-06-07T11:40:34.000Z,10156.00
2019-06-07T11:41:22.563Z,10160.00
2019-06-07T11:42:21.553Z,10136.00
2019-06-07T11:43:21.535Z,10108.00
2019-06-07T11:44:21.539Z,10060.00
2019-06-07T11:45:21.528Z,10048.00
2019-06-07T11:46:21.502Z,10012.00
2019-06-07T11:47:21.499Z,9996.00
2019-06-07T11:48:21.499Z,9988.00
2019-06-07T11:49:22.079Z,10004.00
2019-06-07T11:50:21.510Z,9992.00
2019-06-07T11:51:21.458Z,9956.00
2019-06-07T11:52:21.450Z,9932.00
2019-06-07T11:53:21.442Z,9896.00
2019-06-07T11:54:21.422Z,9892.00
2019-06-07T11:55:21.434Z,9864.00
2019-06-07T11:56:21.420Z,9872.00
2019-06-07T11:57:21.412Z,9872.00
2019-06-07T11:58:21.855Z,9840.00
2019-06-07T11:59:21.380Z,9844.00
2019-06-07T12:00:21.356Z,9852.00
2019-06-07T12:01:21.400Z,9840.00
2019-06-07T12:02:21.349Z,9800.00
2019-06-07T12:03:21.350Z,9780.00
2019-06-07T12:04:32.507Z,9740.00
2019-06-07T12:05:22.302Z,9720.00
2019-06-07T12:06:21.306Z,9696.00
2019-06-07T12:07:21.329Z,9684.00
2019-06-07T12:08:21.279Z,9724.00
2019-06-07T12:09:21.273Z,9724.00
2019-06-07T12:10:42.122Z,9700.00
2019-06-07T12:11:22.242Z,9668.00
2019-06-07T12:12:21.235Z,9632.00
2019-06-07T12:13:21.236Z,9620.00
2019-06-07T12:14:21.213Z,9596.00
2019-06-07T12:15:21.200Z,9568.00
2019-06-07T12:16:21.204Z,9540.00
2019-06-07T12:17:21.223Z,9516.00
2019-06-07T12:18:21.196Z,9516.00
2019-06-07T12:19:21.156Z,9500.00
2019-06-07T12:20:21.208Z,9500.00
2019-06-07T12:21:21.138Z,9500.00
2019-06-07T12:22:21.134Z,9552.00
2019-06-07T12:23:21.166Z,9576.00
2019-06-07T12:24:21.312Z,9580.00
2019-06-07T12:25:24.818Z,9580.00
2019-06-07T12:26:21.084Z,9548.00
2019-06-07T12:27:21.073Z,9492.00
2019-06-07T12:28:21.138Z,9456.00
2019-06-07T12:29:21.205Z,9448.00
2019-06-07T12:30:27.261Z,9448.00
2019-06-07T12:31:22.036Z,9440.00
2019-06-07T12:32:21.620Z,9424.00
2019-06-07T12:33:21.680Z,9412.00
2019-06-07T12:34:21.688Z,9404.00
2019-06-07T12:35:21.878Z,9384.00
2019-06-07T12:36:22.012Z,9356.00
2019-06-07T12:37:25.307Z,9324.00
2019-06-07T12:38:23.135Z,9296.00
2019-06-07T12:39:22.163Z,9280.00
2019-06-07T12:40:30.072Z,9272.00
2019-06-07T12:42:34.607Z,9216.00
2019-06-07T12:43:34.586Z,9232.00
2019-06-07T12:44:34.584Z,9212.00
2019-06-07T12:45:44.441Z,9184.00
2019-06-07T12:46:35.555Z,9152.00
2019-06-07T12:47:34.544Z,9132.00
2019-06-07T12:48:34.532Z,9112.00
2019-06-07T12:49:34.543Z,9092.00
2019-06-07T12:50:42.570Z,9056.00
2019-06-07T12:51:35.503Z,9068.00
2019-06-07T12:52:34.515Z,9084.00
2019-06-07T12:53:34.482Z,9128.00
2019-06-07T12:54:34.474Z,9176.00
2019-06-07T12:55:34.467Z,9172.00
2019-06-07T12:56:34.463Z,9156.00
2019-06-07T12:57:34.448Z,9132.00
2019-06-07T12:58:37.411Z,9128.00
2019-06-07T12:59:35.481Z,9104.00
2019-06-07T13:00:34.411Z,9060.00
2019-06-07T13:01:34.402Z,9016.00
2019-06-07T13:02:34.381Z,8956.00
2019-06-07T13:03:34.883Z,8916.00
2019-06-07T13:04:34.369Z,8900.00
2019-06-07T13:05:34.364Z,8896.00
2019-06-07T13:06:34.355Z,8880.00
2019-06-07T13:07:34.339Z,8872.00
2019-06-07T13:08:34.320Z,8864.00
2019-06-07T13:09:36.213Z,8836.00
2019-06-07T13:10:34.353Z,8776.00
2019-06-07T13:11:34.291Z,8780.00
2019-06-07T13:12:43.983Z,8864.00
2019-06-07T13:13:34.263Z,8924.00
2019-06-07T13:14:34.259Z,8984.00
2019-06-07T13:15:34.243Z,8952.00
2019-06-07T13:16:34.244Z,8912.00
2019-06-07T13:17:34.223Z,8884.00
2019-06-07T13:18:34.212Z,8852.00
2019-06-07T13:19:34.236Z,8860.00
2019-06-07T13:20:34.224Z,8828.00
2019-06-07T13:21:34.182Z,8768.00
2019-06-07T13:22:34.179Z,8712.00
2019-06-07T13:23:34.154Z,8644.00
2019-06-07T13:24:34.164Z,8596.00
2019-06-07T13:25:45.624Z,8584.00
2019-06-07T13:26:35.135Z,8556.00
2019-06-07T13:27:34.154Z,8524.00
2019-06-07T13:28:34.202Z,8516.00
2019-06-07T13:29:34.105Z,8496.00
2019-06-07T13:30:36.391Z,8492.00
2019-06-07T13:31:34.135Z,8488.00
2019-06-07T13:32:34.069Z,8484.00
2019-06-07T13:33:38.683Z,8460.00
2019-06-07T13:34:35.039Z,8468.00
2019-06-07T13:35:34.035Z,8460.00
2019-06-07T13:36:34.048Z,8432.00
2019-06-07T13:37:34.013Z,8408.00
2019-06-07T13:38:34.024Z,8376.00
2019-06-07T13:39:33.997Z,8368.00
2019-06-07T13:40:33.992Z,8384.00
2019-06-07T13:41:42.354Z,8408.00
2019-06-07T13:42:34.967Z,8420.00
2019-06-07T13:43:45.409Z,8444.00
2019-06-07T13:44:33.931Z,8456.00
2019-06-07T13:45:33.939Z,8440.00
2019-06-07T13:46:33.928Z,8432.00
2019-06-07T13:47:33.900Z,8464.00
2019-06-07T13:48:33.890Z,8496.00
2019-06-07T13:49:33.879Z,8572.00
2019-06-07T13:50:33.873Z,8688.00